Time;durP1;ratioP1;P1;durP2;ratioP2;P2;SDS_P1;SDS_P2;PMS_P1;PMS_P2;Temp;Humidity;BMP_temperature;BMP_pressure;BME280_temperature;BME280_humidity;BME280_pressure;Samples;Min_cycle;Max_cycle;Signal;HPM_P1;HPM_P2
2022/01/25 00:08:54;;;;;;;7.90;5.70;;;4.20;99.90;;;;;;5026511;28;20053;-76
2022/01/25 00:25:42;;;;;;;3.50;1.63;;;4.20;99.90;;;;;;5021051;28;20041;-76
2022/01/25 00:28:17;;;;;;;1.13;1.13;;;4.20;99.90;;;;;;5025160;28;20059;-76
2022/01/25 00:30:57;;;;;;;3.58;2.65;;;4.20;99.90;;;;;;5007000;28;20116;-76
2022/01/25 00:33:23;;;;;;;11.70;6.13;;;4.20;99.90;;;;;;5007106;28;20049;-76
2022/01/25 00:35:48;;;;;;;14.40;8.50;;;4.20;99.90;;;;;;5021866;28;20045;-76
2022/01/25 00:38:14;;;;;;;0.40;0.40;;;4.20;99.90;;;;;;5013972;28;20068;-76
2022/01/25 00:40:40;;;;;;;20.75;5.90;;;4.20;99.90;;;;;;5026134;28;20099;-75
2022/01/25 00:43:05;;;;;;;12.85;4.30;;;4.20;99.90;;;;;;4994905;28;20108;-76
2022/01/25 00:45:31;;;;;;;2.00;1.45;;;4.20;99.90;;;;;;5009023;28;20045;-76
2022/01/25 00:47:57;;;;;;;2.25;2.05;;;4.20;99.90;;;;;;5014098;28;20048;-76
2022/01/25 00:50:23;;;;;;;2.70;1.85;;;4.20;99.90;;;;;;5021389;28;20049;-76
2022/01/25 00:55:15;;;;;;;15.25;7.38;;;4.20;99.90;;;;;;5013878;28;20057;-76
2022/01/25 00:57:41;;;;;;;5.72;2.40;;;4.20;99.90;;;;;;5006329;28;20076;-76
2022/01/25 01:00:10;;;;;;;11.65;5.32;;;4.20;99.90;;;;;;5009274;28;20468;-76
2022/01/25 01:02:36;;;;;;;2.72;2.47;;;4.10;99.90;;;;;;5009285;28;20084;-76
2022/01/25 01:05:02;;;;;;;5.93;2.45;;;4.20;99.90;;;;;;5024662;28;20073;-76
2022/01/25 01:07:27;;;;;;;3.40;3.10;;;4.10;99.90;;;;;;5005896;28;20049;-76
2022/01/25 01:09:54;;;;;;;5.05;3.30;;;4.10;99.90;;;;;;4997266;28;20049;-76
2022/01/25 01:12:59;;;;;;;3.97;2.70;;;4.20;99.90;;;;;;5019568;28;20042;-76
2022/01/25 01:29:02;;;;;;;1.00;1.00;;;4.20;99.90;;;;;;5009369;28;20060;-76
2022/01/25 01:29:12;;;;;;;5.57;3.30;;;4.20;99.90;;;;;;5020679;28;20041;-76
2022/01/25 01:45:42;;;;;;;6.45;2.35;;;4.10;99.90;;;;;;5017614;28;20054;-76
2022/01/25 01:48:10;;;;;;;9.95;6.03;;;4.10;99.90;;;;;;5024218;28;20103;-76
2022/01/25 01:50:37;;;;;;;0.43;0.43;;;4.10;99.90;;;;;;5000470;28;20042;-76
2022/01/25 01:53:06;;;;;;;0.30;0.30;;;4.10;99.90;;;;;;5010731;28;20506;-76
2022/01/25 01:55:32;;;;;;;5.25;3.40;;;4.10;99.90;;;;;;5006530;28;20483;-76
2022/01/25 01:57:59;;;;;;;9.73;4.47;;;4.10;99.90;;;;;;5027808;28;20116;-76
2022/01/25 02:00:33;;;;;;;1.85;1.75;;;4.10;99.90;;;;;;5009398;28;20042;-76
2022/01/25 02:03:00;;;;;;;2.92;2.33;;;4.10;99.90;;;;;;5027118;28;20490;-76
2022/01/25 02:05:27;;;;;;;1.00;1.00;;;4.10;99.90;;;;;;5028224;28;20053;-76
2022/01/25 02:07:53;;;;;;;17.63;4.80;;;4.10;99.90;;;;;;5007840;28;20037;-76
2022/01/25 02:10:19;;;;;;;3.63;3.33;;;4.10;99.90;;;;;;5009637;28;20243;-76
2022/01/25 02:12:48;;;;;;;11.57;5.32;;;4.10;99.90;;;;;;5016811;28;20436;-76
2022/01/25 02:15:15;;;;;;;0.40;0.40;;;4.10;99.90;;;;;;5010252;28;20063;-76
2022/01/25 02:22:59;;;;;;;6.43;4.35;;;4.10;99.90;;;;;;5010345;28;20054;-76
2022/01/25 02:25:25;;;;;;;10.27;4.57;;;4.10;99.90;;;;;;5003670;28;20084;-76
2022/01/25 02:27:51;;;;;;;21.35;9.43;;;4.10;99.90;;;;;;4997349;28;20113;-76
2022/01/25 02:30:17;;;;;;;9.00;6.85;;;4.10;99.90;;;;;;5000523;28;20176;-76
2022/01/25 02:32:43;;;;;;;5.40;3.70;;;4.10;99.90;;;;;;5007026;28;20037;-76
2022/01/25 02:35:09;;;;;;;2.72;2.55;;;4.10;99.90;;;;;;5013903;28;20545;-76
2022/01/25 02:37:35;;;;;;;1.52;1.42;;;4.10;99.90;;;;;;5018468;28;20041;-76
2022/01/25 02:40:02;;;;;;;33.80;12.52;;;4.10;99.90;;;;;;5010732;28;20413;-76
2022/01/25 02:42:27;;;;;;;1.77;1.67;;;4.00;99.90;;;;;;5028333;28;20045;-76
2022/01/25 02:44:53;;;;;;;8.00;5.10;;;4.10;99.90;;;;;;5008223;28;20073;-76
2022/01/25 02:50:04;;;;;;;8.90;6.10;;;4.00;99.90;;;;;;5028073;28;20053;-76
2022/01/25 02:52:31;;;;;;;2.55;1.45;;;4.10;99.90;;;;;;5005283;28;20535;-76
2022/01/25 02:54:56;;;;;;;17.70;7.18;;;4.10;99.90;;;;;;5008680;28;20048;-76
2022/01/25 02:57:23;;;;;;;0.68;0.65;;;4.10;99.90;;;;;;5024640;28;20042;-76
2022/01/25 02:59:49;;;;;;;8.88;3.70;;;4.10;99.90;;;;;;5006548;28;20057;-76
2022/01/25 03:02:15;;;;;;;8.25;6.82;;;4.00;99.90;;;;;;5027288;28;20128;-76
2022/01/25 03:04:40;;;;;;;5.28;4.03;;;4.10;99.90;;;;;;5007291;28;20132;-76
2022/01/25 03:07:08;;;;;;;6.45;3.17;;;4.10;99.90;;;;;;5004714;28;20050;-75
2022/01/25 03:09:34;;;;;;;7.43;5.72;;;4.10;99.90;;;;;;4995256;28;20406;-76
2022/01/25 03:12:02;;;;;;;6.15;2.97;;;4.10;99.90;;;;;;5006559;28;20045;-76
2022/01/25 03:14:32;;;;;;;3.22;3.03;;;4.10;99.90;;;;;;5026207;28;20054;-76
2022/01/25 03:22:04;;;;;;;3.40;2.45;;;4.10;99.90;;;;;;5020719;28;20941;-76
2022/01/25 03:24:30;;;;;;;2.25;1.33;;;4.10;99.90;;;;;;5005841;28;20033;-76
2022/01/25 03:26:56;;;;;;;0.50;0.50;;;4.10;99.90;;;;;;5000136;28;20383;-76
2022/01/25 03:29:22;;;;;;;2.38;2.17;;;4.10;99.90;;;;;;5009830;28;20052;-76
2022/01/25 03:31:47;;;;;;;2.38;2.25;;;4.10;99.90;;;;;;5008923;28;20045;-76
2022/01/25 03:34:13;;;;;;;0.30;0.30;;;4.10;99.90;;;;;;5011041;28;20466;-76
2022/01/25 03:36:39;;;;;;;13.18;6.57;;;4.10;99.90;;;;;;5001044;28;20051;-76
2022/01/25 03:39:06;;;;;;;4.90;1.38;;;4.10;99.90;;;;;;5015975;28;20042;-76
2022/01/25 03:41:32;;;;;;;2.55;2.45;;;4.10;99.90;;;;;;5008606;28;20046;-76
2022/01/25 03:43:57;;;;;;;1.05;1.00;;;4.00;99.90;;;;;;5010199;28;20051;-76
2022/01/25 03:46:39;;;;;;;7.50;4.35;;;4.00;99.90;;;;;;5025902;28;20477;-76
2022/01/25 03:51:49;;;;;;;7.38;4.10;;;4.00;99.90;;;;;;5013534;28;20077;-76
2022/01/25 03:54:15;;;;;;;5.45;2.33;;;4.00;99.90;;;;;;5025343;28;20075;-76
2022/01/25 03:56:41;;;;;;;0.20;0.20;;;4.00;99.90;;;;;;5026032;28;20128;-76
2022/01/25 03:59:07;;;;;;;1.08;1.08;;;4.00;99.90;;;;;;5012840;28;20116;-76
2022/01/25 04:01:35;;;;;;;8.70;2.78;;;4.00;99.90;;;;;;5005629;28;20136;-76
2022/01/25 04:04:05;;;;;;;3.08;2.45;;;4.00;99.90;;;;;;5021231;28;20432;-76
2022/01/25 04:06:32;;;;;;;11.30;5.45;;;4.00;99.90;;;;;;5002398;28;20046;-76
2022/01/25 04:09:00;;;;;;;19.25;8.32;;;4.00;99.90;;;;;;5020300;28;20069;-76
2022/01/25 04:11:26;;;;;;;3.60;1.48;;;4.00;99.90;;;;;;4999466;28;20045;-76
2022/01/25 04:13:53;;;;;;;40.17;16.83;;;4.00;99.90;;;;;;5009336;28;20049;-76
2022/01/25 04:16:25;;;;;;;0.40;0.40;;;4.00;99.90;;;;;;5010173;28;20127;-76
2022/01/25 04:26:45;;;;;;;2.30;2.10;;;4.00;99.90;;;;;;5014756;28;20085;-76
2022/01/25 04:29:11;;;;;;;2.30;1.88;;;4.00;99.90;;;;;;4997072;28;20089;-76
2022/01/25 04:31:38;;;;;;;3.30;3.00;;;4.00;99.90;;;;;;5019568;28;20073;-76
2022/01/25 04:50:29;;;;;;;4.95;3.55;;;4.00;99.90;;;;;;5006656;28;20054;-76
2022/01/25 04:53:11;;;;;;;1.55;1.45;;;4.10;99.90;;;;;;5006237;28;20034;-76
2022/01/25 04:55:45;;;;;;;1.95;1.85;;;4.10;99.90;;;;;;5004264;28;20065;-76
2022/01/25 04:58:18;;;;;;;2.33;2.15;;;4.10;99.90;;;;;;5009069;28;20113;-76
2022/01/25 05:00:46;;;;;;;0.60;0.60;;;4.00;99.90;;;;;;5006324;28;20060;-76
2022/01/25 05:03:16;;;;;;;6.97;3.92;;;4.00;99.90;;;;;;5005799;28;20045;-76
2022/01/25 05:05:57;;;;;;;3.83;2.45;;;4.00;99.90;;;;;;5014518;28;20046;-76
2022/01/25 05:11:08;;;;;;;3.72;3.10;;;4.10;99.90;;;;;;5020929;28;20064;-76
2022/01/25 05:16:27;;;;;;;2.13;2.03;;;4.10;99.90;;;;;;5026289;28;20422;-76
2022/01/25 05:19:03;;;;;;;2.55;2.38;;;4.10;99.90;;;;;;5014421;28;20054;-76
2022/01/25 05:24:14;;;;;;;0.95;0.95;;;4.00;99.90;;;;;;5008739;28;20816;-76
2022/01/25 05:26:39;;;;;;;8.30;2.80;;;4.10;99.90;;;;;;5008892;28;20038;-76
2022/01/25 05:29:05;;;;;;;1.80;1.70;;;4.00;99.90;;;;;;5027451;28;20056;-76
2022/01/25 05:31:30;;;;;;;1.08;1.00;;;4.00;99.90;;;;;;5012116;28;20044;-76
2022/01/25 05:33:56;;;;;;;2.55;2.35;;;4.10;99.90;;;;;;5010414;28;20203;-76
2022/01/25 05:36:21;;;;;;;10.07;3.35;;;4.00;99.90;;;;;;5005042;28;20410;-76
2022/01/25 05:38:47;;;;;;;1.85;1.75;;;4.00;99.90;;;;;;5021204;28;20046;-76
2022/01/25 05:41:14;;;;;;;2.92;2.53;;;4.00;99.90;;;;;;5012430;28;20046;-76
2022/01/25 05:46:32;;;;;;;1.58;1.52;;;4.00;99.90;;;;;;5018441;28;20465;-76
2022/01/25 05:48:57;;;;;;;1.63;1.52;;;4.10;99.90;;;;;;4993228;28;20061;-76
2022/01/25 05:51:23;;;;;;;6.90;5.35;;;4.00;99.90;;;;;;5018082;28;20052;-76
2022/01/25 05:53:48;;;;;;;0.77;0.77;;;4.00;99.90;;;;;;5012806;28;20048;-76
2022/01/25 05:56:16;;;;;;;5.28;3.60;;;4.00;99.90;;;;;;5017203;28;20069;-76
2022/01/25 05:58:42;;;;;;;4.50;3.20;;;4.10;99.90;;;;;;5011101;28;20049;-76
2022/01/25 06:01:08;;;;;;;2.35;2.25;;;4.00;99.90;;;;;;5011334;28;20642;-76
2022/01/25 06:03:33;;;;;;;1.35;1.30;;;4.00;99.90;;;;;;5011871;28;20077;-76
2022/01/25 06:05:59;;;;;;;2.00;1.75;;;4.00;99.90;;;;;;5027027;28;20490;-76
2022/01/25 06:08:25;;;;;;;2.92;2.72;;;4.00;99.90;;;;;;5026212;28;20037;-76
2022/01/25 06:10:50;;;;;;;0.30;0.30;;;4.10;99.90;;;;;;5000654;28;20041;-76
2022/01/25 06:13:16;;;;;;;9.75;2.60;;;4.00;99.90;;;;;;5011182;28;20037;-76
2022/01/25 06:15:41;;;;;;;1.55;1.40;;;4.00;99.90;;;;;;5026769;28;20621;-76
2022/01/25 06:18:07;;;;;;;24.10;5.15;;;4.00;99.90;;;;;;5012232;28;20072;-76
2022/01/25 06:20:33;;;;;;;2.28;2.10;;;4.00;99.90;;;;;;5001216;28;20053;-76
2022/01/25 06:22:59;;;;;;;1.10;1.02;;;4.00;99.90;;;;;;5012486;28;20061;-76
2022/01/25 06:25:25;;;;;;;1.40;1.35;;;4.00;99.90;;;;;;5008364;28;20055;-76
2022/01/25 06:27:51;;;;;;;1.75;1.65;;;4.00;99.90;;;;;;5002159;28;20030;-76
2022/01/25 06:30:19;;;;;;;1.05;1.05;;;4.00;99.90;;;;;;5007986;28;20575;-76
2022/01/25 06:32:45;;;;;;;1.25;1.20;;;4.00;99.90;;;;;;5024189;28;20045;-76
2022/01/25 06:35:12;;;;;;;5.03;2.65;;;4.00;99.90;;;;;;5027494;28;20466;-76
2022/01/25 06:37:38;;;;;;;0.40;0.40;;;4.00;99.90;;;;;;5011440;28;20098;-76
2022/01/25 06:40:05;;;;;;;1.02;0.95;;;4.00;99.90;;;;;;4998771;28;20422;-76
2022/01/25 06:42:31;;;;;;;12.80;3.63;;;4.10;99.90;;;;;;4995142;28;20418;-76
2022/01/25 06:45:03;;;;;;;7.22;4.10;;;4.00;99.90;;;;;;5003939;28;20498;-76
2022/01/25 06:47:29;;;;;;;9.30;5.10;;;4.10;99.90;;;;;;5027438;28;20041;-76
2022/01/25 06:49:56;;;;;;;1.20;1.20;;;4.00;99.90;;;;;;5003695;28;20037;-76
2022/01/25 06:52:22;;;;;;;8.95;4.95;;;4.00;99.90;;;;;;5021569;28;20042;-76
2022/01/25 06:54:48;;;;;;;10.88;5.88;;;4.00;99.90;;;;;;5011384;28;20118;-76
2022/01/25 06:57:14;;;;;;;1.25;1.25;;;4.00;99.90;;;;;;5007858;28;20084;-76
2022/01/25 06:59:39;;;;;;;13.80;5.57;;;4.00;99.90;;;;;;5006030;28;20053;-76
2022/01/25 07:02:05;;;;;;;0.63;0.63;;;4.00;99.90;;;;;;5005031;28;20053;-76
2022/01/25 07:04:31;;;;;;;13.02;2.50;;;4.00;99.90;;;;;;5017255;28;20087;-76
2022/01/25 07:06:56;;;;;;;8.60;4.93;;;4.00;99.90;;;;;;5037221;28;20410;-76
2022/01/25 07:09:22;;;;;;;2.20;1.55;;;4.00;99.90;;;;;;5021494;28;20040;-76
2022/01/25 07:11:48;;;;;;;1.67;1.38;;;4.00;99.90;;;;;;5020318;28;20137;-76
2022/01/25 07:14:14;;;;;;;0.88;0.88;;;4.00;99.90;;;;;;5002924;28;20095;-76
2022/01/25 07:16:39;;;;;;;1.35;1.17;;;4.00;99.90;;;;;;5021503;28;20414;-76
2022/01/25 07:19:05;;;;;;;8.05;3.15;;;4.00;99.90;;;;;;5024430;28;20042;-76
2022/01/25 07:21:30;;;;;;;9.02;6.05;;;4.00;99.90;;;;;;4997237;28;20041;-76
2022/01/25 07:23:56;;;;;;;12.65;4.13;;;4.00;99.90;;;;;;5017999;28;20049;-76
2022/01/25 07:26:22;;;;;;;13.95;7.55;;;4.00;99.90;;;;;;4994354;28;20623;-76
2022/01/25 07:28:47;;;;;;;2.97;2.83;;;4.00;99.90;;;;;;4999210;28;20060;-76
2022/01/25 07:31:13;;;;;;;4.72;3.15;;;4.00;99.90;;;;;;5021545;28;20487;-76
2022/01/25 07:33:39;;;;;;;3.58;2.72;;;4.00;99.90;;;;;;5014133;28;20042;-76
2022/01/25 07:36:05;;;;;;;14.57;6.00;;;4.00;99.90;;;;;;5005587;28;20038;-75
2022/01/25 07:38:31;;;;;;;9.02;6.13;;;4.00;99.90;;;;;;4992390;28;20050;-76
2022/01/25 07:40:57;;;;;;;13.30;6.05;;;4.00;99.90;;;;;;4990599;28;20054;-76
2022/01/25 07:43:22;;;;;;;4.40;2.65;;;4.00;99.90;;;;;;5010554;28;20053;-76
2022/01/25 07:45:52;;;;;;;11.90;4.68;;;4.00;99.90;;;;;;5010791;28;20147;-76
2022/01/25 07:48:19;;;;;;;9.07;5.32;;;4.00;99.90;;;;;;5022469;28;20049;-76
2022/01/25 07:50:44;;;;;;;8.55;4.30;;;4.00;99.90;;;;;;5006332;28;20073;-76
2022/01/25 07:53:10;;;;;;;33.85;15.75;;;4.00;99.90;;;;;;5022502;28;20587;-76
2022/01/25 07:55:36;;;;;;;2.92;2.70;;;4.00;99.90;;;;;;5013994;28;20255;-76
2022/01/25 07:58:02;;;;;;;9.70;5.82;;;4.00;99.90;;;;;;5009806;28;20041;-76
2022/01/25 08:00:28;;;;;;;1.15;1.15;;;4.00;99.90;;;;;;5010831;28;20061;-76
2022/01/25 08:02:54;;;;;;;7.93;6.07;;;4.00;99.90;;;;;;5007131;28;20041;-76
2022/01/25 08:05:20;;;;;;;3.35;3.00;;;4.00;99.90;;;;;;5018432;28;20045;-76
2022/01/25 08:07:46;;;;;;;9.07;4.22;;;4.00;99.90;;;;;;5007047;28;20048;-76
2022/01/25 08:10:12;;;;;;;3.08;2.83;;;4.00;99.90;;;;;;5007056;28;20042;-76
2022/01/25 08:12:38;;;;;;;0.73;0.73;;;4.00;99.90;;;;;;5012437;28;20049;-76
2022/01/25 08:15:06;;;;;;;9.00;3.53;;;4.00;99.90;;;;;;4990908;28;20069;-76
2022/01/25 08:17:32;;;;;;;1.75;1.65;;;4.00;99.90;;;;;;5007612;28;20418;-76
2022/01/25 08:19:58;;;;;;;2.10;1.65;;;4.00;99.90;;;;;;4996750;28;20046;-76
2022/01/25 08:22:26;;;;;;;1.00;0.90;;;4.00;99.90;;;;;;5007444;28;20046;-76
2022/01/25 08:24:53;;;;;;;24.50;12.82;;;4.00;99.90;;;;;;4998224;28;20093;-76
2022/01/25 08:27:22;;;;;;;28.98;12.20;;;4.10;99.90;;;;;;5007849;28;20406;-76
2022/01/25 08:29:52;;;;;;;2.05;1.70;;;4.00;99.90;;;;;;4998463;28;20052;-76
2022/01/25 08:32:18;;;;;;;3.50;2.17;;;4.10;99.90;;;;;;4991397;28;20046;-76
2022/01/25 08:34:44;;;;;;;2.15;1.25;;;4.10;99.90;;;;;;4990525;28;20053;-76
2022/01/25 08:37:10;;;;;;;17.80;9.73;;;4.10;99.90;;;;;;5007105;28;20049;-76
2022/01/25 08:39:36;;;;;;;4.90;4.30;;;4.10;99.90;;;;;;5007122;28;20064;-76
2022/01/25 08:42:03;;;;;;;4.60;2.95;;;4.10;99.90;;;;;;5006880;28;20054;-76
2022/01/25 08:44:29;;;;;;;8.35;6.32;;;4.10;99.90;;;;;;5007081;28;20053;-76
2022/01/25 08:46:54;;;;;;;6.18;5.50;;;4.10;99.90;;;;;;4990476;28;20037;-76
2022/01/25 08:49:21;;;;;;;0.65;0.65;;;4.10;99.90;;;;;;4990819;28;20042;-76
2022/01/25 08:51:48;;;;;;;4.78;2.97;;;4.20;99.90;;;;;;5007537;28;20049;-76
2022/01/25 08:54:14;;;;;;;6.60;1.67;;;4.20;99.90;;;;;;5007345;28;20049;-76
2022/01/25 08:56:41;;;;;;;0.25;0.25;;;4.20;99.90;;;;;;5006942;28;20042;-76
2022/01/25 08:59:07;;;;;;;2.53;1.60;;;4.20;99.90;;;;;;5005889;28;20033;-76
2022/01/25 09:01:33;;;;;;;2.22;1.95;;;4.20;99.90;;;;;;5007440;28;20076;-76
2022/01/25 09:04:00;;;;;;;1.80;1.70;;;4.20;99.90;;;;;;5010381;28;20529;-76
2022/01/25 09:06:27;;;;;;;11.52;5.63;;;4.20;99.90;;;;;;5010531;28;20312;-76
2022/01/25 09:09:04;;;;;;;1.85;1.75;;;4.30;99.90;;;;;;5026575;28;20037;-76
2022/01/25 09:11:30;;;;;;;6.28;4.68;;;4.30;99.90;;;;;;5005108;28;20140;-76
2022/01/25 09:13:56;;;;;;;2.45;0.60;;;4.30;99.90;;;;;;5025310;28;20052;-76
2022/01/25 09:16:21;;;;;;;16.33;7.13;;;4.30;99.90;;;;;;5022458;28;20053;-76
2022/01/25 09:18:47;;;;;;;5.70;3.08;;;4.30;99.90;;;;;;5012693;28;20037;-76
2022/01/25 09:21:13;;;;;;;8.07;4.13;;;4.30;99.90;;;;;;5023363;28;20726;-76
2022/01/25 09:23:39;;;;;;;0.60;0.60;;;4.30;99.90;;;;;;5013258;28;20099;-76
2022/01/25 09:26:05;;;;;;;12.48;4.47;;;4.30;99.90;;;;;;5012831;28;20045;-76
2022/01/25 09:28:31;;;;;;;12.35;4.57;;;4.30;99.90;;;;;;5008905;28;20038;-76
2022/01/25 09:30:57;;;;;;;1.25;1.25;;;4.30;99.90;;;;;;5009548;28;20056;-76
2022/01/25 09:33:24;;;;;;;2.90;2.70;;;4.40;99.90;;;;;;5011977;28;20045;-76
2022/01/25 09:35:51;;;;;;;2.30;1.98;;;4.30;99.90;;;;;;5012804;28;20584;-76
2022/01/25 09:38:16;;;;;;;10.10;7.82;;;4.40;99.90;;;;;;4993376;28;20104;-76
2022/01/25 09:40:42;;;;;;;25.23;10.85;;;4.40;99.90;;;;;;5010284;28;20453;-76
2022/01/25 09:43:08;;;;;;;4.10;3.63;;;4.40;99.90;;;;;;4997376;28;20083;-76
2022/01/25 09:45:35;;;;;;;10.25;3.05;;;4.40;99.90;;;;;;4993769;28;20409;-76
2022/01/25 09:48:03;;;;;;;5.63;3.70;;;4.40;99.90;;;;;;4994105;28;20084;-76
2022/01/25 09:50:29;;;;;;;19.85;8.57;;;4.40;99.90;;;;;;5010365;28;20050;-76
2022/01/25 09:52:54;;;;;;;2.53;2.33;;;4.40;99.90;;;;;;4996405;28;20056;-76
2022/01/25 09:55:23;;;;;;;19.92;8.38;;;4.40;99.90;;;;;;5014159;28;20076;-76
2022/01/25 09:57:49;;;;;;;4.55;3.90;;;4.40;99.90;;;;;;5005911;28;20156;-76
2022/01/25 10:00:20;;;;;;;4.57;3.67;;;4.40;99.90;;;;;;5019036;28;20045;-76
2022/01/25 10:03:12;;;;;;;5.10;3.05;;;4.40;99.90;;;;;;5001769;28;20042;-76
2022/01/25 10:05:43;;;;;;;13.55;7.25;;;4.40;99.90;;;;;;5011074;28;20378;-76
2022/01/25 10:08:11;;;;;;;27.33;13.82;;;4.40;99.90;;;;;;5006330;28;20029;-77
2022/01/25 10:10:53;;;;;;;38.30;14.18;;;4.40;99.90;;;;;;5005410;28;20041;-76
2022/01/25 10:13:27;;;;;;;8.57;7.45;;;4.40;99.90;;;;;;5011480;28;20161;-76
2022/01/25 10:16:00;;;;;;;51.15;19.10;;;4.40;99.90;;;;;;5007313;28;20053;-76
2022/01/25 10:18:40;;;;;;;21.38;6.95;;;4.40;99.90;;;;;;5019509;28;20111;-76
2022/01/25 10:21:22;;;;;;;1.73;1.33;;;4.40;99.90;;;;;;5008865;28;20077;-76
2022/01/25 10:24:11;;;;;;;1.02;0.95;;;4.40;99.90;;;;;;5028934;28;20096;-76
2022/01/25 10:26:58;;;;;;;24.40;12.60;;;4.40;99.90;;;;;;5011607;28;20149;-76
2022/01/25 10:29:30;;;;;;;17.25;8.07;;;4.40;99.90;;;;;;5027214;28;20132;-76
2022/01/25 10:32:02;;;;;;;9.60;4.40;;;4.40;99.90;;;;;;5029226;28;20054;-76
2022/01/25 10:34:33;;;;;;;19.97;9.70;;;4.40;99.90;;;;;;5028521;28;20284;-76
2022/01/25 10:37:05;;;;;;;8.50;3.92;;;4.40;99.90;;;;;;5009042;28;20300;-76
2022/01/25 10:39:35;;;;;;;9.10;4.20;;;4.40;99.90;;;;;;5011693;28;20045;-76
2022/01/25 10:42:10;;;;;;;38.72;16.77;;;4.40;99.90;;;;;;5007963;28;20061;-76
2022/01/25 10:44:55;;;;;;;27.92;12.57;;;4.40;99.90;;;;;;4991940;28;20054;-75
2022/01/25 10:47:50;;;;;;;2.17;2.05;;;4.40;99.90;;;;;;5007913;28;20052;-75
2022/01/25 10:50:22;;;;;;;15.10;6.50;;;4.40;99.90;;;;;;4996092;28;20033;-75
2022/01/25 10:53:09;;;;;;;0.40;0.40;;;4.40;99.90;;;;;;5016096;28;20049;-76
2022/01/25 10:55:46;;;;;;;1.45;1.35;;;4.40;99.90;;;;;;5010361;28;20476;-75
2022/01/25 10:58:14;;;;;;;14.23;7.90;;;4.50;99.90;;;;;;5021592;28;20085;-75
2022/01/25 11:00:45;;;;;;;1.10;1.10;;;4.50;99.90;;;;;;5007821;28;20070;-75
2022/01/25 11:03:44;;;;;;;5.40;3.50;;;4.50;99.90;;;;;;5000746;28;20625;-76
2022/01/25 11:06:17;;;;;;;10.10;5.07;;;4.50;99.90;;;;;;5017722;28;20053;-76
2022/01/25 11:08:46;;;;;;;41.45;16.85;;;4.50;99.90;;;;;;4991075;28;20092;-75
2022/01/25 11:11:30;;;;;;;48.65;18.55;;;4.50;99.90;;;;;;5018774;28;20402;-76
2022/01/25 11:14:00;;;;;;;24.63;11.20;;;4.50;99.90;;;;;;5012382;28;20042;-76
2022/01/25 11:16:25;;;;;;;13.77;3.92;;;4.50;99.90;;;;;;5008875;28;20044;-75
2022/01/25 11:18:51;;;;;;;1.42;1.35;;;4.50;99.90;;;;;;4991704;28;20050;-75
2022/01/25 11:21:19;;;;;;;41.78;16.65;;;4.50;99.90;;;;;;4997193;28;20498;-75
2022/01/25 11:23:46;;;;;;;9.80;6.80;;;4.50;99.90;;;;;;5008001;28;20120;-75
2022/01/25 11:26:13;;;;;;;18.58;5.60;;;4.50;99.90;;;;;;5009684;28;20278;-75
2022/01/25 11:28:41;;;;;;;1.52;1.52;;;4.50;99.90;;;;;;5016686;28;20498;-76
2022/01/25 11:31:10;;;;;;;10.73;7.22;;;4.50;99.90;;;;;;5021299;28;20045;-75
2022/01/25 11:33:41;;;;;;;1.52;1.42;;;4.50;99.90;;;;;;5011183;28;20041;-75
2022/01/25 11:36:11;;;;;;;12.45;4.25;;;4.60;99.90;;;;;;5024428;28;20057;-75
2022/01/25 11:38:47;;;;;;;8.60;3.95;;;4.60;99.90;;;;;;5027290;28;20124;-75
2022/01/25 11:41:14;;;;;;;24.50;10.70;;;4.60;99.90;;;;;;5000903;28;20475;-75
2022/01/25 11:44:09;;;;;;;5.03;2.63;;;4.70;99.90;;;;;;5008075;28;20060;-75
2022/01/25 11:46:37;;;;;;;22.75;9.70;;;4.70;99.90;;;;;;5019484;28;20068;-75
2022/01/25 11:49:14;;;;;;;4.90;2.47;;;4.70;99.90;;;;;;5023139;28;20080;-75
2022/01/25 11:51:40;;;;;;;8.52;4.85;;;4.70;99.90;;;;;;5014918;28;20616;-75
2022/01/25 11:54:08;;;;;;;53.80;22.73;;;4.70;99.90;;;;;;5007079;28;20037;-75
2022/01/25 11:56:36;;;;;;;8.25;4.22;;;4.70;99.90;;;;;;5024846;28;20124;-75
2022/01/25 11:59:05;;;;;;;25.95;11.75;;;4.70;99.90;;;;;;5003109;28;20064;-75
2022/01/25 12:01:33;;;;;;;5.85;4.97;;;4.70;99.90;;;;;;5007160;28;20515;-75
2022/01/25 12:04:04;;;;;;;6.53;5.22;;;4.70;99.90;;;;;;5013147;28;20054;-75
2022/01/25 12:06:36;;;;;;;15.05;9.48;;;4.70;99.90;;;;;;5017904;28;20587;-75
2022/01/25 12:09:31;;;;;;;27.95;12.55;;;4.60;99.90;;;;;;5008755;28;20058;-75
2022/01/25 12:12:07;;;;;;;10.00;6.20;;;4.60;99.90;;;;;;4999442;28;20305;-75
2022/01/25 12:14:44;;;;;;;4.13;3.60;;;4.60;99.90;;;;;;5021765;28;20121;-75
2022/01/25 12:17:11;;;;;;;2.97;2.58;;;4.60;99.90;;;;;;5018463;28;20038;-75
2022/01/25 12:19:51;;;;;;;16.05;9.85;;;4.60;99.90;;;;;;4992416;28;20130;-75
2022/01/25 12:22:26;;;;;;;10.60;5.38;;;4.70;99.90;;;;;;5006237;28;20049;-75
2022/01/25 12:25:26;;;;;;;16.77;4.47;;;4.70;99.90;;;;;;4999918;28;20072;-75
2022/01/25 12:28:03;;;;;;;40.17;17.30;;;4.70;99.90;;;;;;5021398;28;20524;-75
2022/01/25 12:30:37;;;;;;;65.40;26.15;;;4.70;99.90;;;;;;5004488;28;20045;-75
2022/01/25 12:33:29;;;;;;;72.82;27.55;;;4.70;99.90;;;;;;5012846;28;20049;-75
2022/01/25 12:36:01;;;;;;;33.13;14.38;;;4.70;99.90;;;;;;4991666;28;20128;-75
2022/01/25 12:38:38;;;;;;;24.77;4.35;;;4.70;99.90;;;;;;5025677;28;20052;-75
2022/01/25 12:41:23;;;;;;;60.30;21.38;;;4.70;99.90;;;;;;5013624;28;20053;-75
2022/01/25 12:43:54;;;;;;;35.22;16.20;;;4.70;99.90;;;;;;4996599;28;20046;-75
2022/01/25 12:46:33;;;;;;;33.00;8.02;;;4.70;99.90;;;;;;5008096;28;20045;-75
2022/01/25 12:49:11;;;;;;;6.18;5.13;;;4.70;99.90;;;;;;5008256;28;20049;-75
2022/01/25 12:51:39;;;;;;;23.27;12.18;;;4.70;99.90;;;;;;5004255;28;20103;-75
2022/01/25 12:54:11;;;;;;;1.52;1.42;;;4.70;99.90;;;;;;5005459;28;20042;-75
2022/01/25 12:56:50;;;;;;;30.40;13.15;;;4.70;99.90;;;;;;5004721;28;20414;-76
2022/01/25 12:59:24;;;;;;;13.35;6.55;;;4.60;99.90;;;;;;4999961;28;20583;-75
2022/01/25 13:01:51;;;;;;;7.78;5.85;;;4.60;99.90;;;;;;5017463;28;20041;-76
2022/01/25 13:04:17;;;;;;;7.32;6.43;;;4.70;99.90;;;;;;5017979;28;20042;-76
2022/01/25 13:06:50;;;;;;;6.82;4.53;;;4.60;99.90;;;;;;5015103;28;20120;-76
2022/01/25 13:09:27;;;;;;;12.07;4.68;;;4.60;99.90;;;;;;5020757;28;20045;-77
2022/01/25 13:15:03;;;;;;;10.70;6.32;;;4.60;99.90;;;;;;5020838;28;20080;-76
2022/01/25 13:17:31;;;;;;;0.73;0.73;;;4.70;99.90;;;;;;5016352;28;20054;-76
2022/01/25 13:20:01;;;;;;;11.80;7.40;;;4.70;99.90;;;;;;5004668;28;20037;-76
2022/01/25 13:22:36;;;;;;;21.55;8.07;;;4.70;99.90;;;;;;4996245;28;20054;-74
2022/01/25 13:25:14;;;;;;;4.82;3.25;;;4.70;99.90;;;;;;5009145;28;20773;-74
2022/01/25 13:27:50;;;;;;;1.88;1.75;;;4.60;99.90;;;;;;5024542;28;20128;-74
2022/01/25 13:33:07;;;;;;;3.92;3.63;;;4.60;99.90;;;;;;5021329;28;20053;-76
2022/01/25 13:35:36;;;;;;;10.70;6.80;;;4.60;99.90;;;;;;5008460;28;20399;-76
2022/01/25 13:38:41;;;;;;;10.50;6.65;;;4.70;99.90;;;;;;5007232;28;20593;-77
2022/01/25 13:46:12;;;;;;;14.40;8.00;;;4.60;99.90;;;;;;4987704;28;20348;-76
2022/01/25 13:48:39;;;;;;;6.22;4.30;;;4.60;99.90;;;;;;4970222;28;20038;-76
2022/01/25 13:51:07;;;;;;;15.52;7.18;;;4.60;99.90;;;;;;4986891;28;20038;-76
2022/01/25 13:53:34;;;;;;;22.33;9.50;;;4.60;99.90;;;;;;4975032;28;20053;-76
2022/01/25 13:56:01;;;;;;;20.92;10.10;;;4.50;99.90;;;;;;4975495;28;20394;-76
2022/01/25 13:58:37;;;;;;;9.63;3.85;;;4.60;99.90;;;;;;4990482;28;20054;-76
2022/01/25 14:01:06;;;;;;;9.18;3.78;;;4.50;99.90;;;;;;4991467;28;20050;-76
2022/01/25 14:03:36;;;;;;;4.28;2.80;;;4.50;99.90;;;;;;4983487;28;20042;-76
2022/01/25 14:06:27;;;;;;;4.53;3.67;;;4.50;99.90;;;;;;4993943;28;20514;-76
2022/01/25 14:09:00;;;;;;;13.38;9.93;;;4.50;99.90;;;;;;4983143;28;20057;-76
2022/01/25 14:23:08;;;;;;;50.00;21.33;;;4.50;99.90;;;;;;5024971;28;20053;-75
2022/01/25 14:25:42;;;;;;;3.67;2.97;;;4.50;99.90;;;;;;5009269;28;20052;-75
2022/01/25 14:28:10;;;;;;;17.00;8.90;;;4.50;99.90;;;;;;5025651;28;20046;-75
2022/01/25 14:30:38;;;;;;;11.82;5.63;;;4.50;99.90;;;;;;5009075;28;20073;-74
2022/01/25 14:33:14;;;;;;;57.03;23.58;;;4.50;99.90;;;;;;5011639;28;20045;-75
2022/01/25 14:35:56;;;;;;;62.95;24.40;;;4.50;99.90;;;;;;5012271;28;20049;-74
2022/01/25 14:38:22;;;;;;;20.88;10.48;;;4.40;99.90;;;;;;5029085;28;20685;-74
2022/01/25 14:41:10;;;;;;;33.42;12.60;;;4.40;99.90;;;;;;5011663;28;20103;-75
2022/01/25 14:43:38;;;;;;;27.02;12.32;;;4.40;99.90;;;;;;5012403;28;20041;-74
2022/01/25 14:46:09;;;;;;;27.48;12.15;;;4.40;99.90;;;;;;5025270;28;20046;-75
2022/01/25 14:48:37;;;;;;;27.27;11.43;;;4.40;99.90;;;;;;5008660;28;20046;-75
2022/01/25 14:51:06;;;;;;;15.30;5.78;;;4.30;99.90;;;;;;5008822;28;20172;-74
2022/01/25 14:53:31;;;;;;;10.18;5.15;;;4.30;99.90;;;;;;5009274;28;20065;-75
2022/01/25 14:56:00;;;;;;;4.28;2.85;;;4.30;99.90;;;;;;5008800;28;20045;-74
2022/01/25 15:01:12;;;;;;;39.33;15.25;;;4.30;99.90;;;;;;5008304;28;20117;-74
2022/01/25 15:03:38;;;;;;;6.53;3.65;;;4.30;99.90;;;;;;5008717;28;20052;-75
2022/01/25 15:06:05;;;;;;;9.77;4.38;;;4.30;99.90;;;;;;5005268;28;20034;-74
2022/01/25 15:08:31;;;;;;;2.05;1.95;;;4.30;99.90;;;;;;5008956;28;20467;-75
2022/01/25 15:10:59;;;;;;;14.50;8.27;;;4.30;99.90;;;;;;4999212;28;20048;-74